sensor_id;sensor_type;location;lat;lon;timestamp;P1;durP1;ratioP1;P2;durP2;ratioP2
12770;SDS011;6449;47.666;9.160;2023-11-19T00:02:37;1.30;;;1.20;;
12770;SDS011;6449;47.666;9.160;2023-11-19T00:07:33;1.57;;;1.30;;
12770;SDS011;6449;47.666;9.160;2023-11-19T00:12:26;1.40;;;1.30;;
12770;SDS011;6449;47.666;9.160;2023-11-19T00:17:20;1.37;;;1.27;;
12770;SDS011;6449;47.666;9.160;2023-11-19T00:22:14;1.37;;;1.27;;
12770;SDS011;6449;47.666;9.160;2023-11-19T00:27:10;1.30;;;1.20;;
12770;SDS011;6449;47.666;9.160;2023-11-19T00:32:04;1.33;;;1.23;;
12770;SDS011;6449;47.666;9.160;2023-11-19T00:36:59;1.37;;;1.27;;
12770;SDS011;6449;47.666;9.160;2023-11-19T00:41:52;1.73;;;1.23;;
12770;SDS011;6449;47.666;9.160;2023-11-19T00:46:47;1.83;;;1.43;;
12770;SDS011;6449;47.666;9.160;2023-11-19T00:51:40;2.00;;;1.50;;
12770;SDS011;6449;47.666;9.160;2023-11-19T00:56:34;2.03;;;1.80;;
12770;SDS011;6449;47.666;9.160;2023-11-19T01:01:28;1.70;;;1.60;;
12770;SDS011;6449;47.666;9.160;2023-11-19T01:06:30;1.67;;;1.30;;
12770;SDS011;6449;47.666;9.160;2023-11-19T01:11:25;2.00;;;1.63;;
12770;SDS011;6449;47.666;9.160;2023-11-19T01:16:19;2.70;;;1.53;;
12770;SDS011;6449;47.666;9.160;2023-11-19T01:21:13;4.63;;;1.93;;
12770;SDS011;6449;47.666;9.160;2023-11-19T01:26:08;1.60;;;1.50;;
12770;SDS011;6449;47.666;9.160;2023-11-19T01:31:03;1.50;;;1.40;;
12770;SDS011;6449;47.666;9.160;2023-11-19T01:35:59;2.17;;;1.70;;
12770;SDS011;6449;47.666;9.160;2023-11-19T01:40:55;2.03;;;1.47;;
12770;SDS011;6449;47.666;9.160;2023-11-19T01:45:50;1.70;;;1.53;;
12770;SDS011;6449;47.666;9.160;2023-11-19T01:50:44;1.70;;;1.37;;
12770;SDS011;6449;47.666;9.160;2023-11-19T01:55:37;1.30;;;1.20;;
12770;SDS011;6449;47.666;9.160;2023-11-19T02:00:34;1.63;;;1.47;;
12770;SDS011;6449;47.666;9.160;2023-11-19T02:05:29;1.93;;;1.60;;
12770;SDS011;6449;47.666;9.160;2023-11-19T02:10:24;1.70;;;1.07;;
12770;SDS011;6449;47.666;9.160;2023-11-19T02:15:17;1.23;;;1.13;;
12770;SDS011;6449;47.666;9.160;2023-11-19T02:20:11;1.43;;;1.27;;
12770;SDS011;6449;47.666;9.160;2023-11-19T02:25:09;1.80;;;1.50;;
12770;SDS011;6449;47.666;9.160;2023-11-19T02:30:15;1.10;;;1.00;;
12770;SDS011;6449;47.666;9.160;2023-11-19T02:35:08;2.27;;;1.90;;
12770;SDS011;6449;47.666;9.160;2023-11-19T02:40:02;2.00;;;1.70;;
12770;SDS011;6449;47.666;9.160;2023-11-19T02:45:00;5.13;;;1.70;;
12770;SDS011;6449;47.666;9.160;2023-11-19T02:49:59;1.70;;;1.60;;
12770;SDS011;6449;47.666;9.160;2023-11-19T02:54:53;2.13;;;1.80;;
12770;SDS011;6449;47.666;9.160;2023-11-19T02:59:47;1.60;;;1.50;;
12770;SDS011;6449;47.666;9.160;2023-11-19T03:04:40;1.30;;;1.20;;
12770;SDS011;6449;47.666;9.160;2023-11-19T03:09:38;1.70;;;1.60;;
12770;SDS011;6449;47.666;9.160;2023-11-19T03:14:33;15.67;;;6.90;;
12770;SDS011;6449;47.666;9.160;2023-11-19T03:19:27;9.57;;;4.60;;
12770;SDS011;6449;47.666;9.160;2023-11-19T03:24:21;2.73;;;2.30;;
12770;SDS011;6449;47.666;9.160;2023-11-19T03:29:17;3.47;;;2.40;;
12770;SDS011;6449;47.666;9.160;2023-11-19T03:34:10;3.77;;;2.33;;
12770;SDS011;6449;47.666;9.160;2023-11-19T03:39:04;1.93;;;1.83;;
12770;SDS011;6449;47.666;9.160;2023-11-19T03:43:58;2.53;;;1.90;;
12770;SDS011;6449;47.666;9.160;2023-11-19T03:48:53;1.90;;;1.80;;
12770;SDS011;6449;47.666;9.160;2023-11-19T03:53:46;1.53;;;1.40;;
12770;SDS011;6449;47.666;9.160;2023-11-19T03:58:39;2.60;;;1.90;;
12770;SDS011;6449;47.666;9.160;2023-11-19T04:03:33;1.70;;;1.60;;
12770;SDS011;6449;47.666;9.160;2023-11-19T04:08:28;2.20;;;1.50;;
12770;SDS011;6449;47.666;9.160;2023-11-19T04:13:21;1.57;;;1.40;;
12770;SDS011;6449;47.666;9.160;2023-11-19T04:18:15;3.20;;;1.47;;
12770;SDS011;6449;47.666;9.160;2023-11-19T04:23:09;3.77;;;1.70;;
12770;SDS011;6449;47.666;9.160;2023-11-19T04:28:04;2.33;;;1.70;;
12770;SDS011;6449;47.666;9.160;2023-11-19T04:32:57;1.57;;;1.47;;
12770;SDS011;6449;47.666;9.160;2023-11-19T04:37:51;1.87;;;1.77;;
12770;SDS011;6449;47.666;9.160;2023-11-19T04:42:44;2.50;;;1.90;;
12770;SDS011;6449;47.666;9.160;2023-11-19T04:47:39;1.67;;;1.50;;
12770;SDS011;6449;47.666;9.160;2023-11-19T04:52:32;2.07;;;1.87;;
12770;SDS011;6449;47.666;9.160;2023-11-19T04:57:26;2.37;;;1.90;;
12770;SDS011;6449;47.666;9.160;2023-11-19T05:02:19;2.70;;;2.30;;
12770;SDS011;6449;47.666;9.160;2023-11-19T05:07:14;2.87;;;2.27;;
12770;SDS011;6449;47.666;9.160;2023-11-19T05:12:07;2.60;;;2.10;;
12770;SDS011;6449;47.666;9.160;2023-11-19T05:17:04;3.03;;;2.07;;
12770;SDS011;6449;47.666;9.160;2023-11-19T05:22:01;4.20;;;2.20;;
12770;SDS011;6449;47.666;9.160;2023-11-19T05:26:56;2.90;;;2.13;;
12770;SDS011;6449;47.666;9.160;2023-11-19T05:31:50;2.33;;;2.07;;
12770;SDS011;6449;47.666;9.160;2023-11-19T05:36:43;2.83;;;2.40;;
12770;SDS011;6449;47.666;9.160;2023-11-19T05:41:38;2.30;;;2.03;;
12770;SDS011;6449;47.666;9.160;2023-11-19T05:46:35;2.50;;;1.70;;
12770;SDS011;6449;47.666;9.160;2023-11-19T05:51:32;1.77;;;1.67;;
12770;SDS011;6449;47.666;9.160;2023-11-19T05:56:31;1.90;;;1.60;;
12770;SDS011;6449;47.666;9.160;2023-11-19T06:01:24;1.60;;;1.50;;
12770;SDS011;6449;47.666;9.160;2023-11-19T06:06:19;2.33;;;1.60;;
12770;SDS011;6449;47.666;9.160;2023-11-19T06:11:12;1.40;;;1.30;;
12770;SDS011;6449;47.666;9.160;2023-11-19T06:16:10;1.67;;;1.57;;
12770;SDS011;6449;47.666;9.160;2023-11-19T06:21:04;1.30;;;1.20;;
12770;SDS011;6449;47.666;9.160;2023-11-19T06:26:01;2.07;;;1.80;;
12770;SDS011;6449;47.666;9.160;2023-11-19T06:30:56;2.87;;;1.70;;
12770;SDS011;6449;47.666;9.160;2023-11-19T06:35:50;1.53;;;1.43;;
12770;SDS011;6449;47.666;9.160;2023-11-19T06:40:47;2.53;;;1.50;;
12770;SDS011;6449;47.666;9.160;2023-11-19T06:45:46;1.70;;;1.60;;
12770;SDS011;6449;47.666;9.160;2023-11-19T06:50:40;2.23;;;1.33;;
12770;SDS011;6449;47.666;9.160;2023-11-19T06:55:33;3.13;;;1.80;;
12770;SDS011;6449;47.666;9.160;2023-11-19T07:00:26;1.53;;;1.40;;
12770;SDS011;6449;47.666;9.160;2023-11-19T07:05:22;2.53;;;1.43;;
12770;SDS011;6449;47.666;9.160;2023-11-19T07:10:15;1.97;;;1.47;;
12770;SDS011;6449;47.666;9.160;2023-11-19T07:15:09;2.07;;;1.60;;
12770;SDS011;6449;47.666;9.160;2023-11-19T07:20:05;1.67;;;1.47;;
12770;SDS011;6449;47.666;9.160;2023-11-19T07:25:06;2.07;;;1.60;;
12770;SDS011;6449;47.666;9.160;2023-11-19T07:30:03;1.67;;;1.57;;
12770;SDS011;6449;47.666;9.160;2023-11-19T07:34:59;2.83;;;1.40;;
12770;SDS011;6449;47.666;9.160;2023-11-19T07:39:55;1.60;;;1.43;;
12770;SDS011;6449;47.666;9.160;2023-11-19T07:44:50;1.70;;;1.33;;
12770;SDS011;6449;47.666;9.160;2023-11-19T07:49:45;1.40;;;1.30;;
12770;SDS011;6449;47.666;9.160;2023-11-19T07:54:39;1.80;;;1.40;;
12770;SDS011;6449;47.666;9.160;2023-11-19T07:59:33;2.23;;;1.50;;
12770;SDS011;6449;47.666;9.160;2023-11-19T08:04:28;1.27;;;1.17;;
12770;SDS011;6449;47.666;9.160;2023-11-19T08:09:21;1.50;;;1.27;;
12770;SDS011;6449;47.666;9.160;2023-11-19T08:14:18;3.07;;;1.20;;
12770;SDS011;6449;47.666;9.160;2023-11-19T08:19:14;1.60;;;1.30;;
12770;SDS011;6449;47.666;9.160;2023-11-19T08:24:09;0.90;;;0.90;;
12770;SDS011;6449;47.666;9.160;2023-11-19T08:29:02;1.20;;;1.10;;
12770;SDS011;6449;47.666;9.160;2023-11-19T08:33:56;0.90;;;0.90;;
12770;SDS011;6449;47.666;9.160;2023-11-19T08:38:49;1.07;;;1.00;;
12770;SDS011;6449;47.666;9.160;2023-11-19T08:43:44;1.87;;;1.23;;
12770;SDS011;6449;47.666;9.160;2023-11-19T08:48:38;2.10;;;1.30;;
12770;SDS011;6449;47.666;9.160;2023-11-19T08:53:32;1.40;;;1.10;;
12770;SDS011;6449;47.666;9.160;2023-11-19T08:58:25;2.70;;;1.00;;
12770;SDS011;6449;47.666;9.160;2023-11-19T09:03:20;1.50;;;0.90;;
12770;SDS011;6449;47.666;9.160;2023-11-19T09:08:14;1.07;;;1.00;;
12770;SDS011;6449;47.666;9.160;2023-11-19T09:13:10;1.13;;;0.93;;
12770;SDS011;6449;47.666;9.160;2023-11-19T09:18:04;1.30;;;1.00;;
12770;SDS011;6449;47.666;9.160;2023-11-19T09:22:59;0.70;;;0.70;;
12770;SDS011;6449;47.666;9.160;2023-11-19T09:27:52;1.90;;;1.37;;
12770;SDS011;6449;47.666;9.160;2023-11-19T09:32:49;2.07;;;0.80;;
12770;SDS011;6449;47.666;9.160;2023-11-19T09:37:43;1.13;;;1.03;;
12770;SDS011;6449;47.666;9.160;2023-11-19T09:42:39;1.07;;;0.87;;
12770;SDS011;6449;47.666;9.160;2023-11-19T09:47:37;0.70;;;0.70;;
12770;SDS011;6449;47.666;9.160;2023-11-19T09:52:31;0.63;;;0.63;;
12770;SDS011;6449;47.666;9.160;2023-11-19T09:57:24;0.80;;;0.80;;
12770;SDS011;6449;47.666;9.160;2023-11-19T10:02:26;0.90;;;0.83;;
12770;SDS011;6449;47.666;9.160;2023-11-19T10:07:27;0.70;;;0.70;;
12770;SDS011;6449;47.666;9.160;2023-11-19T10:12:20;0.90;;;0.90;;
12770;SDS011;6449;47.666;9.160;2023-11-19T10:17:14;0.90;;;0.90;;
12770;SDS011;6449;47.666;9.160;2023-11-19T10:22:09;4.63;;;1.10;;
12770;SDS011;6449;47.666;9.160;2023-11-19T10:27:08;0.70;;;0.70;;
12770;SDS011;6449;47.666;9.160;2023-11-19T10:32:01;2.83;;;1.30;;
12770;SDS011;6449;47.666;9.160;2023-11-19T10:37:28;2.80;;;1.20;;
12770;SDS011;6449;47.666;9.160;2023-11-19T10:42:24;1.83;;;1.00;;
12770;SDS011;6449;47.666;9.160;2023-11-19T10:47:18;2.30;;;1.10;;
12770;SDS011;6449;47.666;9.160;2023-11-19T10:52:30;3.13;;;1.10;;
12770;SDS011;6449;47.666;9.160;2023-11-19T10:57:26;1.87;;;1.10;;
12770;SDS011;6449;47.666;9.160;2023-11-19T11:02:31;1.33;;;1.03;;
12770;SDS011;6449;47.666;9.160;2023-11-19T11:07:36;1.47;;;0.77;;
12770;SDS011;6449;47.666;9.160;2023-11-19T11:12:33;1.00;;;0.90;;
12770;SDS011;6449;47.666;9.160;2023-11-19T11:17:31;2.70;;;0.90;;
12770;SDS011;6449;47.666;9.160;2023-11-19T11:22:26;1.00;;;0.80;;
12770;SDS011;6449;47.666;9.160;2023-11-19T11:27:39;0.60;;;0.60;;
12770;SDS011;6449;47.666;9.160;2023-11-19T11:33:04;0.70;;;0.70;;
12770;SDS011;6449;47.666;9.160;2023-11-19T11:38:18;0.70;;;0.70;;
12770;SDS011;6449;47.666;9.160;2023-11-19T11:48:48;1.10;;;1.00;;
12770;SDS011;6449;47.666;9.160;2023-11-19T11:53:45;0.87;;;0.67;;
12770;SDS011;6449;47.666;9.160;2023-11-19T11:58:41;1.20;;;0.93;;
12770;SDS011;6449;47.666;9.160;2023-11-19T12:03:37;0.97;;;0.70;;
12770;SDS011;6449;47.666;9.160;2023-11-19T12:08:31;0.70;;;0.70;;
12770;SDS011;6449;47.666;9.160;2023-11-19T12:13:52;1.03;;;0.80;;
12770;SDS011;6449;47.666;9.160;2023-11-19T12:18:54;0.80;;;0.80;;
12770;SDS011;6449;47.666;9.160;2023-11-19T12:23:55;0.60;;;0.60;;
12770;SDS011;6449;47.666;9.160;2023-11-19T12:29:07;0.93;;;0.93;;
12770;SDS011;6449;47.666;9.160;2023-11-19T12:34:05;0.90;;;0.90;;
12770;SDS011;6449;47.666;9.160;2023-11-19T12:39:07;2.13;;;0.80;;
12770;SDS011;6449;47.666;9.160;2023-11-19T12:44:12;1.43;;;0.70;;
12770;SDS011;6449;47.666;9.160;2023-11-19T12:49:05;0.80;;;0.80;;
12770;SDS011;6449;47.666;9.160;2023-11-19T12:53:59;2.50;;;0.90;;
12770;SDS011;6449;47.666;9.160;2023-11-19T12:58:52;1.70;;;0.97;;
12770;SDS011;6449;47.666;9.160;2023-11-19T13:03:47;2.47;;;0.90;;
12770;SDS011;6449;47.666;9.160;2023-11-19T13:08:43;0.80;;;0.80;;
12770;SDS011;6449;47.666;9.160;2023-11-19T13:13:55;2.37;;;1.17;;
12770;SDS011;6449;47.666;9.160;2023-11-19T13:18:52;1.10;;;1.00;;
12770;SDS011;6449;47.666;9.160;2023-11-19T13:23:46;1.50;;;1.20;;
12770;SDS011;6449;47.666;9.160;2023-11-19T13:28:40;1.03;;;1.00;;
12770;SDS011;6449;47.666;9.160;2023-11-19T13:33:33;1.20;;;1.10;;
12770;SDS011;6449;47.666;9.160;2023-11-19T13:38:29;1.33;;;1.10;;
12770;SDS011;6449;47.666;9.160;2023-11-19T13:43:24;2.23;;;1.17;;
12770;SDS011;6449;47.666;9.160;2023-11-19T13:48:20;1.00;;;0.90;;
12770;SDS011;6449;47.666;9.160;2023-11-19T13:53:20;0.80;;;0.80;;
12770;SDS011;6449;47.666;9.160;2023-11-19T13:58:17;1.13;;;1.03;;
12770;SDS011;6449;47.666;9.160;2023-11-19T14:03:10;1.30;;;1.03;;
12770;SDS011;6449;47.666;9.160;2023-11-19T14:08:05;1.00;;;0.90;;
12770;SDS011;6449;47.666;9.160;2023-11-19T14:13:17;1.70;;;1.07;;
12770;SDS011;6449;47.666;9.160;2023-11-19T14:18:10;0.77;;;0.77;;
12770;SDS011;6449;47.666;9.160;2023-11-19T14:23:06;1.07;;;0.97;;
12770;SDS011;6449;47.666;9.160;2023-11-19T14:28:02;1.10;;;1.00;;
12770;SDS011;6449;47.666;9.160;2023-11-19T14:32:59;1.33;;;0.90;;
12770;SDS011;6449;47.666;9.160;2023-11-19T14:37:58;0.90;;;0.90;;
12770;SDS011;6449;47.666;9.160;2023-11-19T14:42:51;1.30;;;0.97;;
12770;SDS011;6449;47.666;9.160;2023-11-19T14:47:48;1.27;;;0.97;;
12770;SDS011;6449;47.666;9.160;2023-11-19T14:52:52;1.33;;;1.03;;
12770;SDS011;6449;47.666;9.160;2023-11-19T14:57:46;0.80;;;0.80;;
12770;SDS011;6449;47.666;9.160;2023-11-19T15:02:56;2.60;;;1.00;;
12770;SDS011;6449;47.666;9.160;2023-11-19T15:07:51;0.80;;;0.80;;
12770;SDS011;6449;47.666;9.160;2023-11-19T15:12:48;1.67;;;0.90;;
12770;SDS011;6449;47.666;9.160;2023-11-19T15:17:46;0.93;;;0.90;;
12770;SDS011;6449;47.666;9.160;2023-11-19T15:22:47;2.50;;;0.90;;
12770;SDS011;6449;47.666;9.160;2023-11-19T15:27:43;1.37;;;0.90;;
12770;SDS011;6449;47.666;9.160;2023-11-19T15:32:42;0.97;;;0.90;;
12770;SDS011;6449;47.666;9.160;2023-11-19T15:37:39;1.53;;;1.10;;
12770;SDS011;6449;47.666;9.160;2023-11-19T15:42:35;1.10;;;1.10;;
12770;SDS011;6449;47.666;9.160;2023-11-19T15:47:38;2.33;;;1.20;;
12770;SDS011;6449;47.666;9.160;2023-11-19T15:52:42;1.00;;;1.00;;
12770;SDS011;6449;47.666;9.160;2023-11-19T15:57:44;2.43;;;1.20;;
12770;SDS011;6449;47.666;9.160;2023-11-19T16:03:01;3.13;;;1.10;;
12770;SDS011;6449;47.666;9.160;2023-11-19T16:08:05;1.70;;;1.30;;
12770;SDS011;6449;47.666;9.160;2023-11-19T16:13:12;1.73;;;1.30;;
12770;SDS011;6449;47.666;9.160;2023-11-19T16:18:07;1.33;;;1.20;;
12770;SDS011;6449;47.666;9.160;2023-11-19T16:23:07;1.60;;;1.17;;
12770;SDS011;6449;47.666;9.160;2023-11-19T16:28:01;1.23;;;1.13;;
12770;SDS011;6449;47.666;9.160;2023-11-19T16:33:00;2.07;;;1.30;;
12770;SDS011;6449;47.666;9.160;2023-11-19T16:38:06;1.67;;;1.27;;
12770;SDS011;6449;47.666;9.160;2023-11-19T16:43:00;2.00;;;1.10;;
12770;SDS011;6449;47.666;9.160;2023-11-19T16:47:54;0.90;;;0.90;;
12770;SDS011;6449;47.666;9.160;2023-11-19T16:52:47;1.00;;;0.90;;
12770;SDS011;6449;47.666;9.160;2023-11-19T16:57:44;1.87;;;1.30;;
12770;SDS011;6449;47.666;9.160;2023-11-19T17:02:37;1.23;;;1.13;;
12770;SDS011;6449;47.666;9.160;2023-11-19T17:07:36;1.60;;;1.50;;
12770;SDS011;6449;47.666;9.160;2023-11-19T17:12:30;1.33;;;1.20;;
12770;SDS011;6449;47.666;9.160;2023-11-19T17:17:25;1.63;;;1.20;;
12770;SDS011;6449;47.666;9.160;2023-11-19T17:22:25;1.33;;;1.23;;
12770;SDS011;6449;47.666;9.160;2023-11-19T17:27:18;1.40;;;1.30;;
12770;SDS011;6449;47.666;9.160;2023-11-19T17:32:14;1.20;;;1.10;;
12770;SDS011;6449;47.666;9.160;2023-11-19T17:37:09;1.13;;;1.03;;
12770;SDS011;6449;47.666;9.160;2023-11-19T17:42:03;1.40;;;1.30;;
12770;SDS011;6449;47.666;9.160;2023-11-19T17:46:59;1.70;;;1.50;;
12770;SDS011;6449;47.666;9.160;2023-11-19T17:51:53;1.20;;;1.10;;
12770;SDS011;6449;47.666;9.160;2023-11-19T17:56:49;1.70;;;1.13;;
12770;SDS011;6449;47.666;9.160;2023-11-19T18:01:43;1.10;;;1.00;;
12770;SDS011;6449;47.666;9.160;2023-11-19T18:06:38;1.07;;;1.00;;
12770;SDS011;6449;47.666;9.160;2023-11-19T18:11:35;1.50;;;1.10;;
12770;SDS011;6449;47.666;9.160;2023-11-19T18:16:30;1.13;;;1.00;;
12770;SDS011;6449;47.666;9.160;2023-11-19T18:21:24;1.23;;;1.00;;
12770;SDS011;6449;47.666;9.160;2023-11-19T18:26:17;2.27;;;1.20;;
12770;SDS011;6449;47.666;9.160;2023-11-19T18:31:11;1.30;;;1.20;;
12770;SDS011;6449;47.666;9.160;2023-11-19T18:36:12;0.93;;;0.90;;
12770;SDS011;6449;47.666;9.160;2023-11-19T18:41:06;1.17;;;0.97;;
12770;SDS011;6449;47.666;9.160;2023-11-19T18:46:03;1.10;;;1.00;;
12770;SDS011;6449;47.666;9.160;2023-11-19T18:51:02;1.00;;;0.90;;
12770;SDS011;6449;47.666;9.160;2023-11-19T18:55:57;1.00;;;0.97;;
12770;SDS011;6449;47.666;9.160;2023-11-19T19:00:50;1.17;;;1.07;;
12770;SDS011;6449;47.666;9.160;2023-11-19T19:05:45;1.57;;;0.90;;
12770;SDS011;6449;47.666;9.160;2023-11-19T19:10:39;1.10;;;1.00;;
12770;SDS011;6449;47.666;9.160;2023-11-19T19:15:34;1.13;;;0.90;;
12770;SDS011;6449;47.666;9.160;2023-11-19T19:20:38;1.37;;;0.70;;
12770;SDS011;6449;47.666;9.160;2023-11-19T19:25:37;0.67;;;0.67;;
12770;SDS011;6449;47.666;9.160;2023-11-19T19:30:31;0.90;;;0.90;;
12770;SDS011;6449;47.666;9.160;2023-11-19T19:35:36;2.07;;;0.97;;
12770;SDS011;6449;47.666;9.160;2023-11-19T19:40:59;1.20;;;1.10;;
12770;SDS011;6449;47.666;9.160;2023-11-19T19:46:14;1.03;;;0.97;;
12770;SDS011;6449;47.666;9.160;2023-11-19T19:51:13;1.30;;;1.20;;
12770;SDS011;6449;47.666;9.160;2023-11-19T19:56:10;1.13;;;1.00;;
12770;SDS011;6449;47.666;9.160;2023-11-19T20:01:08;1.50;;;1.37;;
12770;SDS011;6449;47.666;9.160;2023-11-19T20:06:10;1.37;;;1.23;;
12770;SDS011;6449;47.666;9.160;2023-11-19T20:11:16;1.17;;;1.07;;
12770;SDS011;6449;47.666;9.160;2023-11-19T20:16:10;2.07;;;1.37;;
12770;SDS011;6449;47.666;9.160;2023-11-19T20:21:07;1.03;;;1.03;;
12770;SDS011;6449;47.666;9.160;2023-11-19T20:31:48;0.80;;;0.80;;
12770;SDS011;6449;47.666;9.160;2023-11-19T20:36:58;0.90;;;0.90;;
12770;SDS011;6449;47.666;9.160;2023-11-19T20:42:13;0.93;;;0.90;;
12770;SDS011;6449;47.666;9.160;2023-11-19T20:47:31;1.33;;;0.90;;
12770;SDS011;6449;47.666;9.160;2023-11-19T20:52:38;2.07;;;0.90;;
12770;SDS011;6449;47.666;9.160;2023-11-19T20:57:45;0.53;;;0.53;;
12770;SDS011;6449;47.666;9.160;2023-11-19T21:02:41;1.63;;;0.70;;
12770;SDS011;6449;47.666;9.160;2023-11-19T21:07:34;0.87;;;0.60;;
12770;SDS011;6449;47.666;9.160;2023-11-19T21:12:28;0.50;;;0.50;;
12770;SDS011;6449;47.666;9.160;2023-11-19T21:17:23;0.63;;;0.63;;
12770;SDS011;6449;47.666;9.160;2023-11-19T21:22:16;0.40;;;0.40;;
12770;SDS011;6449;47.666;9.160;2023-11-19T21:27:12;0.83;;;0.43;;
12770;SDS011;6449;47.666;9.160;2023-11-19T21:32:09;0.40;;;0.37;;
12770;SDS011;6449;47.666;9.160;2023-11-19T21:37:04;0.50;;;0.50;;
12770;SDS011;6449;47.666;9.160;2023-11-19T21:41:57;0.40;;;0.40;;
12770;SDS011;6449;47.666;9.160;2023-11-19T21:46:51;0.57;;;0.43;;
12770;SDS011;6449;47.666;9.160;2023-11-19T21:51:44;0.50;;;0.40;;
12770;SDS011;6449;47.666;9.160;2023-11-19T21:56:39;0.40;;;0.33;;
12770;SDS011;6449;47.666;9.160;2023-11-19T22:01:32;1.80;;;0.40;;
12770;SDS011;6449;47.666;9.160;2023-11-19T22:06:26;1.33;;;0.67;;
12770;SDS011;6449;47.666;9.160;2023-11-19T22:11:19;0.60;;;0.43;;
12770;SDS011;6449;47.666;9.160;2023-11-19T22:16:16;0.57;;;0.40;;
12770;SDS011;6449;47.666;9.160;2023-11-19T22:21:10;0.43;;;0.40;;
12770;SDS011;6449;47.666;9.160;2023-11-19T22:26:04;0.47;;;0.47;;
12770;SDS011;6449;47.666;9.160;2023-11-19T22:30:58;0.43;;;0.43;;
12770;SDS011;6449;47.666;9.160;2023-11-19T22:35:53;0.60;;;0.50;;
12770;SDS011;6449;47.666;9.160;2023-11-19T22:40:46;0.40;;;0.40;;
12770;SDS011;6449;47.666;9.160;2023-11-19T22:45:40;0.47;;;0.47;;
12770;SDS011;6449;47.666;9.160;2023-11-19T22:50:33;0.33;;;0.33;;
12770;SDS011;6449;47.666;9.160;2023-11-19T22:55:28;0.73;;;0.60;;
12770;SDS011;6449;47.666;9.160;2023-11-19T23:00:21;0.60;;;0.60;;
12770;SDS011;6449;47.666;9.160;2023-11-19T23:05:20;0.57;;;0.57;;
12770;SDS011;6449;47.666;9.160;2023-11-19T23:10:15;0.67;;;0.60;;
12770;SDS011;6449;47.666;9.160;2023-11-19T23:15:11;2.83;;;0.60;;
12770;SDS011;6449;47.666;9.160;2023-11-19T23:20:06;2.20;;;0.97;;
12770;SDS011;6449;47.666;9.160;2023-11-19T23:25:02;1.00;;;0.70;;
12770;SDS011;6449;47.666;9.160;2023-11-19T23:29:56;0.80;;;0.80;;
12770;SDS011;6449;47.666;9.160;2023-11-19T23:34:51;2.33;;;0.50;;
12770;SDS011;6449;47.666;9.160;2023-11-19T23:39:44;0.60;;;0.60;;
12770;SDS011;6449;47.666;9.160;2023-11-19T23:44:38;1.33;;;0.47;;
12770;SDS011;6449;47.666;9.160;2023-11-19T23:49:31;2.70;;;0.50;;
12770;SDS011;6449;47.666;9.160;2023-11-19T23:54:26;0.97;;;0.60;;
12770;SDS011;6449;47.666;9.160;2023-11-19T23:59:19;1.03;;;0.83;;
